Time;durP1;ratioP1;P1;durP2;ratioP2;P2;SDS_P1;SDS_P2;PMS_P1;PMS_P2;Temp;Humidity;BMP_temperature;BMP_pressure;BME280_temperature;BME280_humidity;BME280_pressure;Samples;Min_cycle;Max_cycle;Signal;HPM_P1;HPM_P2
2023/06/23 00:01:45;;;;;;;0.00;0.00;;;20.70;99.90;;;;;;5027251;28;20434;-79
2023/06/23 00:04:11;;;;;;;0.00;0.00;;;20.70;99.90;;;;;;5011306;28;20679;-79
2023/06/23 00:06:36;;;;;;;0.00;0.00;;;20.50;99.90;;;;;;5034728;28;20999;-79
2023/06/23 00:09:07;;;;;;;0.00;0.00;;;20.60;99.90;;;;;;5042000;28;20446;-79
2023/06/23 00:11:33;;;;;;;0.00;0.00;;;20.50;99.90;;;;;;5030312;28;20191;-79
2023/06/23 00:13:58;;;;;;;0.00;0.00;;;20.50;99.90;;;;;;5029412;28;20600;-79
2023/06/23 00:16:24;;;;;;;0.00;0.00;;;20.60;99.90;;;;;;5027471;28;20186;-79
2023/06/23 00:18:49;;;;;;;0.00;0.00;;;20.50;99.90;;;;;;5010717;28;20191;-79
2023/06/23 00:21:15;;;;;;;0.00;0.00;;;20.50;99.90;;;;;;5030737;28;20270;-79
2023/06/23 00:23:40;;;;;;;0.00;0.00;;;20.40;99.90;;;;;;5013476;28;20183;-79
2023/06/23 00:26:07;;;;;;;0.00;0.00;;;20.40;99.90;;;;;;5027009;28;20242;-79
2023/06/23 00:28:33;;;;;;;0.00;0.00;;;20.50;99.90;;;;;;5027736;28;20179;-79
2023/06/23 00:30:59;;;;;;;0.00;0.00;;;20.40;99.90;;;;;;5027057;28;20947;-79
2023/06/23 00:33:24;;;;;;;0.00;0.00;;;20.40;99.90;;;;;;5029587;28;20238;-79
2023/06/23 00:35:50;;;;;;;0.00;0.00;;;20.50;99.90;;;;;;5029896;28;20280;-79
2023/06/23 00:38:15;;;;;;;0.00;0.00;;;20.40;99.90;;;;;;5006511;28;20192;-79
2023/06/23 00:40:41;;;;;;;0.00;0.00;;;20.40;99.90;;;;;;5027069;28;20233;-79
2023/06/23 00:43:07;;;;;;;0.00;0.00;;;20.50;99.90;;;;;;5025595;28;20226;-79
2023/06/23 00:45:33;;;;;;;0.00;0.00;;;20.20;99.90;;;;;;5023052;28;20187;-79
2023/06/23 00:48:01;;;;;;;0.00;0.00;;;20.40;99.90;;;;;;5018394;28;20450;-79
2023/06/23 00:50:26;;;;;;;0.00;0.00;;;20.30;99.90;;;;;;5024800;28;20191;-79
2023/06/23 00:52:53;;;;;;;0.00;0.00;;;20.30;99.90;;;;;;5009309;28;20519;-79
2023/06/23 00:55:22;;;;;;;0.00;0.00;;;20.30;99.90;;;;;;5041678;28;20737;-79
2023/06/23 00:57:49;;;;;;;0.00;0.00;;;20.20;99.90;;;;;;5026680;28;20930;-79
2023/06/23 01:00:19;;;;;;;0.00;0.00;;;20.20;99.90;;;;;;5003713;28;20446;-79
2023/06/23 01:03:03;;;;;;;0.00;0.00;;;20.10;99.90;;;;;;5029343;28;20434;-79
2023/06/23 01:05:36;;;;;;;0.00;0.00;;;20.10;99.90;;;;;;5012854;28;21002;-79
2023/06/23 01:08:30;;;;;;;0.00;0.00;;;20.10;99.90;;;;;;5029523;28;20446;-79
2023/06/23 01:10:56;;;;;;;0.00;0.00;;;20.00;99.90;;;;;;5027749;28;20434;-79
2023/06/23 01:13:34;;;;;;;0.00;0.00;;;20.10;99.90;;;;;;5043854;28;20477;-79
2023/06/23 01:16:17;;;;;;;0.00;0.00;;;20.10;99.90;;;;;;5026457;28;20475;-79
2023/06/23 01:19:24;;;;;;;0.00;0.00;;;20.10;99.90;;;;;;5005992;28;20485;-79
2023/06/23 01:22:07;;;;;;;0.00;0.00;;;20.20;99.90;;;;;;5011300;28;20442;-79
2023/06/23 01:24:48;;;;;;;0.00;0.00;;;20.20;99.90;;;;;;5039978;28;20499;-79
2023/06/23 01:27:39;;;;;;;0.00;0.00;;;20.10;99.90;;;;;;5026648;28;20448;-79
2023/06/23 01:30:09;;;;;;;0.00;0.00;;;20.10;99.90;;;;;;5010619;28;20537;-79
2023/06/23 01:33:03;;;;;;;0.00;0.00;;;20.10;99.90;;;;;;5023299;28;20469;-78
2023/06/23 01:35:36;;;;;;;0.00;0.00;;;20.10;99.90;;;;;;5029590;28;20453;-79
2023/06/23 01:38:11;;;;;;;0.00;0.00;;;20.20;99.90;;;;;;5025465;28;20457;-79
2023/06/23 01:40:40;;;;;;;0.00;0.00;;;20.10;99.90;;;;;;5020246;28;20812;-78
2023/06/23 01:43:07;;;;;;;0.00;0.00;;;20.10;99.90;;;;;;5045041;28;20437;-79
2023/06/23 01:45:35;;;;;;;0.00;0.00;;;20.00;99.90;;;;;;5024355;28;20473;-79
2023/06/23 01:48:06;;;;;;;0.00;0.00;;;20.00;99.90;;;;;;5014040;28;20519;-79
2023/06/23 01:50:33;;;;;;;0.00;0.00;;;20.00;99.90;;;;;;5023636;28;20521;-79
2023/06/23 01:53:01;;;;;;;0.00;0.00;;;20.00;99.90;;;;;;5015626;28;20497;-79
2023/06/23 01:55:28;;;;;;;0.00;0.00;;;19.90;99.90;;;;;;5017818;28;20449;-79
2023/06/23 01:57:55;;;;;;;0.00;0.00;;;20.00;99.90;;;;;;5029079;28;20446;-79
2023/06/23 02:00:22;;;;;;;0.00;0.00;;;19.90;99.90;;;;;;5026907;28;20492;-79
2023/06/23 02:02:49;;;;;;;0.00;0.00;;;19.90;99.90;;;;;;5040587;28;20920;-79
2023/06/23 02:05:19;;;;;;;0.00;0.00;;;20.00;99.90;;;;;;5033881;28;20492;-79
2023/06/23 02:07:47;;;;;;;0.00;0.00;;;20.00;99.90;;;;;;5013065;28;20446;-79
2023/06/23 02:10:14;;;;;;;0.00;0.00;;;19.90;99.90;;;;;;5025268;28;20469;-78
2023/06/23 02:12:43;;;;;;;0.00;0.00;;;19.80;99.90;;;;;;5026181;28;20531;-79
2023/06/23 02:15:10;;;;;;;0.00;0.00;;;19.80;99.90;;;;;;5029788;28;20442;-79
2023/06/23 02:17:36;;;;;;;0.00;0.00;;;19.80;99.90;;;;;;5030069;28;20445;-79
2023/06/23 02:20:16;;;;;;;0.00;0.00;;;19.80;99.90;;;;;;5029662;28;20496;-79
2023/06/23 02:22:46;;;;;;;0.00;0.00;;;19.90;99.90;;;;;;5030757;28;20453;-79
2023/06/23 02:25:12;;;;;;;0.00;0.00;;;19.70;99.90;;;;;;5030723;28;20511;-79
2023/06/23 02:27:39;;;;;;;0.00;0.00;;;19.70;99.90;;;;;;5035817;28;20731;-79
2023/06/23 02:30:06;;;;;;;0.00;0.00;;;19.70;99.90;;;;;;5031175;28;20450;-79
2023/06/23 02:32:32;;;;;;;0.00;0.00;;;19.60;99.90;;;;;;5031265;28;20576;-79
2023/06/23 02:34:57;;;;;;;0.00;0.00;;;19.60;99.90;;;;;;5030002;28;20587;-79
2023/06/23 02:37:25;;;;;;;0.00;0.00;;;19.60;99.90;;;;;;5054852;28;20664;-79
2023/06/23 02:39:58;;;;;;;0.00;0.00;;;19.80;99.90;;;;;;5022739;28;20202;-79
2023/06/23 02:42:30;;;;;;;0.00;0.00;;;19.80;99.90;;;;;;5031465;28;20456;-79
2023/06/23 02:45:01;;;;;;;0.00;0.00;;;19.70;99.90;;;;;;5030554;28;20489;-79
2023/06/23 02:47:29;;;;;;;0.00;0.00;;;19.80;99.90;;;;;;5028208;28;20461;-79
2023/06/23 02:50:01;;;;;;;0.00;0.00;;;19.80;99.90;;;;;;5010414;28;20438;-79
2023/06/23 02:52:29;;;;;;;0.00;0.00;;;19.80;99.90;;;;;;5034520;28;20519;-79
2023/06/23 02:54:55;;;;;;;0.00;0.00;;;19.70;99.90;;;;;;5051536;28;20422;-79
2023/06/23 02:57:22;;;;;;;0.00;0.00;;;19.80;99.90;;;;;;5052316;28;20418;-79
2023/06/23 02:59:51;;;;;;;0.00;0.00;;;19.80;99.90;;;;;;5037475;28;20431;-79
2023/06/23 03:02:22;;;;;;;0.00;0.00;;;19.90;99.90;;;;;;5023365;28;21055;-79
2023/06/23 03:04:48;;;;;;;0.00;0.00;;;20.00;99.90;;;;;;5012404;28;20442;-79
2023/06/23 03:07:15;;;;;;;0.00;0.00;;;19.90;99.90;;;;;;5047070;28;20490;-79
2023/06/23 03:09:42;;;;;;;0.00;0.00;;;19.80;99.90;;;;;;5030287;28;20446;-79
2023/06/23 03:12:08;;;;;;;0.00;0.00;;;19.70;99.90;;;;;;5030405;28;20443;-79
2023/06/23 03:14:34;;;;;;;0.00;0.00;;;19.70;99.90;;;;;;5030808;28;20954;-79
2023/06/23 03:17:08;;;;;;;0.00;0.00;;;19.70;99.90;;;;;;5033291;28;20210;-79
2023/06/23 03:19:41;;;;;;;0.00;0.00;;;19.70;99.90;;;;;;5044961;28;20544;-79
2023/06/23 03:22:27;;;;;;;0.00;0.00;;;19.60;99.90;;;;;;5029588;28;20442;-79
2023/06/23 03:24:56;;;;;;;0.00;0.00;;;19.60;99.90;;;;;;5030182;28;20472;-79
2023/06/23 03:27:26;;;;;;;0.00;0.00;;;19.70;99.90;;;;;;5023452;28;20435;-79
2023/06/23 03:30:16;;;;;;;0.00;0.00;;;19.80;99.90;;;;;;5025262;28;20477;-79
2023/06/23 03:32:44;;;;;;;0.00;0.00;;;19.80;99.90;;;;;;5031077;28;21029;-79
2023/06/23 03:35:13;;;;;;;0.00;0.00;;;19.70;99.90;;;;;;5010811;28;20458;-79
2023/06/23 03:37:45;;;;;;;0.00;0.00;;;19.90;99.90;;;;;;5039999;28;20453;-79
2023/06/23 03:40:14;;;;;;;0.00;0.00;;;19.80;99.90;;;;;;5011625;28;20456;-79
2023/06/23 03:42:44;;;;;;;0.00;0.00;;;19.80;99.90;;;;;;5041368;28;20481;-79
2023/06/23 03:45:12;;;;;;;0.00;0.00;;;19.70;99.90;;;;;;5029348;28;20434;-79
2023/06/23 03:47:40;;;;;;;0.00;0.00;;;19.80;99.90;;;;;;5011324;28;20450;-79
2023/06/23 03:50:11;;;;;;;0.00;0.00;;;19.60;99.90;;;;;;5029357;28;20969;-79
2023/06/23 03:52:39;;;;;;;0.00;0.00;;;19.80;99.90;;;;;;5039222;28;20920;-80
2023/06/23 03:55:06;;;;;;;0.00;0.00;;;19.70;99.90;;;;;;5030033;28;20850;-79
2023/06/23 03:57:34;;;;;;;0.00;0.00;;;19.60;99.90;;;;;;5030577;28;20489;-80
2023/06/23 04:00:03;;;;;;;0.00;0.00;;;19.60;99.90;;;;;;5028136;28;20438;-80
2023/06/23 04:02:30;;;;;;;0.00;0.00;;;19.60;99.90;;;;;;5042022;28;21080;-79
2023/06/23 04:04:57;;;;;;;0.00;0.00;;;19.70;99.90;;;;;;5008664;28;20470;-79
2023/06/23 04:07:26;;;;;;;0.00;0.00;;;19.60;99.90;;;;;;5028922;28;20450;-80
2023/06/23 04:09:53;;;;;;;0.00;0.00;;;19.60;99.90;;;;;;5029103;28;20482;-79
2023/06/23 04:12:21;;;;;;;0.00;0.00;;;19.50;99.90;;;;;;5029636;28;20555;-79
2023/06/23 04:14:51;;;;;;;0.00;0.00;;;19.60;99.90;;;;;;5014279;28;20553;-79
2023/06/23 04:17:22;;;;;;;0.00;0.00;;;19.50;99.90;;;;;;5006416;28;22327;-80
2023/06/23 04:19:52;;;;;;;0.00;0.00;;;19.70;99.90;;;;;;5025274;28;20457;-79
2023/06/23 04:22:19;;;;;;;0.00;0.00;;;19.60;99.90;;;;;;5042070;28;20443;-79
2023/06/23 04:24:45;;;;;;;0.00;0.00;;;19.60;99.90;;;;;;5027484;28;20516;-79
2023/06/23 04:27:13;;;;;;;0.00;0.00;;;19.50;99.90;;;;;;5028909;28;20448;-79
2023/06/23 04:29:43;;;;;;;0.00;0.00;;;19.60;99.90;;;;;;5033761;28;20477;-80
2023/06/23 04:32:10;;;;;;;0.00;0.00;;;19.60;99.90;;;;;;5030817;28;20454;-80
2023/06/23 04:34:35;;;;;;;0.00;0.00;;;19.60;99.90;;;;;;5000843;28;20443;-80
2023/06/23 04:37:25;;;;;;;0.00;0.00;;;19.60;99.90;;;;;;5034095;28;20456;-80
2023/06/23 04:40:06;;;;;;;0.00;0.00;;;19.70;99.90;;;;;;5029608;28;20887;-80
2023/06/23 04:43:02;;;;;;;0.00;0.00;;;19.70;99.90;;;;;;5030936;28;20474;-80
2023/06/23 04:45:30;;;;;;;0.00;0.00;;;19.70;99.90;;;;;;5023492;28;20441;-79
2023/06/23 04:48:00;;;;;;;0.00;0.00;;;19.70;99.90;;;;;;5030447;28;20536;-80
2023/06/23 04:50:28;;;;;;;0.00;0.00;;;19.80;99.90;;;;;;5029312;28;20453;-80
2023/06/23 04:53:06;;;;;;;0.00;0.00;;;19.70;99.90;;;;;;5022316;28;20518;-80
2023/06/23 04:55:35;;;;;;;0.00;0.00;;;19.80;99.90;;;;;;5031147;28;20445;-80
2023/06/23 04:58:05;;;;;;;0.00;0.00;;;19.80;99.90;;;;;;5029948;28;20525;-79
2023/06/23 05:00:32;;;;;;;0.00;0.00;;;19.70;99.90;;;;;;5025273;28;20457;-79
2023/06/23 05:02:59;;;;;;;0.00;0.00;;;19.70;99.90;;;;;;5041851;28;20864;-79
2023/06/23 05:05:27;;;;;;;0.00;0.00;;;19.70;99.90;;;;;;5034441;28;20566;-79
2023/06/23 05:07:55;;;;;;;0.00;0.00;;;19.80;99.90;;;;;;5026690;28;20453;-79
2023/06/23 05:10:24;;;;;;;0.00;0.00;;;19.70;99.90;;;;;;5039879;28;20530;-80
2023/06/23 05:12:52;;;;;;;0.00;0.00;;;19.70;99.90;;;;;;5025468;28;20470;-80
2023/06/23 05:15:19;;;;;;;0.00;0.00;;;19.70;99.90;;;;;;5009747;28;20875;-80
2023/06/23 05:17:48;;;;;;;0.00;0.00;;;19.80;99.90;;;;;;5030964;28;20441;-80
2023/06/23 05:20:16;;;;;;;0.00;0.00;;;19.80;99.90;;;;;;5009273;28;20439;-80
2023/06/23 05:22:45;;;;;;;0.00;0.00;;;19.60;99.90;;;;;;5025193;28;20454;-80
2023/06/23 05:25:11;;;;;;;0.00;0.00;;;19.60;99.90;;;;;;5020900;28;20446;-79
2023/06/23 05:27:39;;;;;;;0.00;0.00;;;19.60;99.90;;;;;;5010934;28;20461;-80
2023/06/23 05:30:08;;;;;;;0.00;0.00;;;19.50;99.90;;;;;;5039878;28;20445;-80
2023/06/23 05:32:36;;;;;;;0.00;0.00;;;19.40;99.90;;;;;;5019802;28;20490;-80
2023/06/23 05:35:04;;;;;;;0.00;0.00;;;19.30;99.90;;;;;;5050259;28;20437;-79
2023/06/23 05:37:33;;;;;;;0.00;0.00;;;19.30;99.90;;;;;;5031019;28;21035;-80
2023/06/23 05:40:03;;;;;;;0.00;0.00;;;19.30;99.90;;;;;;5028201;28;20452;-80
2023/06/23 05:42:29;;;;;;;0.00;0.00;;;19.20;99.90;;;;;;5028093;28;20465;-80
2023/06/23 05:44:55;;;;;;;0.00;0.00;;;19.30;99.90;;;;;;5025352;28;20972;-80
2023/06/23 05:47:25;;;;;;;0.00;0.00;;;19.20;99.90;;;;;;5011127;28;20438;-80
2023/06/23 05:49:55;;;;;;;0.00;0.00;;;19.20;99.90;;;;;;5027915;28;20644;-79
2023/06/23 05:52:22;;;;;;;0.00;0.00;;;19.20;99.90;;;;;;5031215;28;21057;-80
2023/06/23 05:54:52;;;;;;;0.00;0.00;;;19.30;99.90;;;;;;5027049;28;20457;-79
2023/06/23 05:57:27;;;;;;;0.00;0.00;;;19.40;99.90;;;;;;5033232;28;20500;-80
2023/06/23 06:00:10;;;;;;;0.00;0.00;;;19.30;99.90;;;;;;5024770;28;20449;-80
2023/06/23 06:02:39;;;;;;;0.00;0.00;;;19.40;99.90;;;;;;5019132;28;20807;-80
2023/06/23 06:05:10;;;;;;;0.00;0.00;;;19.20;99.90;;;;;;5024860;28;20437;-80
2023/06/23 06:07:36;;;;;;;0.00;0.00;;;19.20;99.90;;;;;;5027432;28;20457;-80
2023/06/23 06:10:06;;;;;;;0.00;0.00;;;19.30;99.90;;;;;;5030665;28;20446;-80
2023/06/23 06:12:35;;;;;;;0.00;0.00;;;19.30;99.90;;;;;;5014290;28;20473;-80
2023/06/23 06:15:02;;;;;;;0.00;0.00;;;19.30;99.90;;;;;;5030144;28;20444;-80
2023/06/23 06:17:29;;;;;;;0.00;0.00;;;19.50;99.90;;;;;;5027990;28;20446;-79
2023/06/23 06:19:59;;;;;;;0.00;0.00;;;19.40;99.90;;;;;;5045532;28;20476;-79
2023/06/23 06:22:26;;;;;;;0.00;0.00;;;19.40;99.90;;;;;;5025767;28;20447;-78
2023/06/23 06:24:53;;;;;;;0.00;0.00;;;19.50;99.90;;;;;;5030389;28;20862;-79
2023/06/23 06:27:20;;;;;;;0.00;0.00;;;19.60;99.90;;;;;;5031057;28;20809;-80
2023/06/23 06:29:47;;;;;;;0.00;0.00;;;19.50;99.90;;;;;;5030041;28;20859;-80
2023/06/23 06:32:14;;;;;;;0.00;0.00;;;19.60;99.90;;;;;;5038888;28;20832;-80
2023/06/23 06:34:43;;;;;;;0.00;0.00;;;19.70;99.90;;;;;;5025912;28;20441;-79
2023/06/23 06:37:09;;;;;;;0.00;0.00;;;19.70;99.90;;;;;;5030592;28;21188;-80
2023/06/23 06:39:37;;;;;;;0.00;0.00;;;19.70;99.90;;;;;;5008893;28;20522;-80
2023/06/23 06:42:03;;;;;;;0.00;0.00;;;19.70;99.90;;;;;;5026171;28;20582;-79
2023/06/23 06:44:29;;;;;;;0.00;0.00;;;19.60;99.90;;;;;;5034257;28;21011;-80
2023/06/23 06:46:55;;;;;;;0.00;0.00;;;19.60;99.90;;;;;;5023684;28;20968;-80
2023/06/23 07:38:59;;;;;;;0.00;0.00;;;19.90;99.90;;;;;;5124971;27;20588;-80
2023/06/23 07:41:24;;;;;;;0.00;0.00;;;19.90;99.90;;;;;;5101386;27;20506;-81
2023/06/23 07:43:50;;;;;;;0.00;0.00;;;19.90;99.90;;;;;;5119851;27;21221;-80
2023/06/23 07:46:15;;;;;;;0.00;0.00;;;19.90;99.90;;;;;;5110433;28;20184;-81
2023/06/23 07:48:41;;;;;;;0.00;0.00;;;19.90;99.90;;;;;;5121660;27;20741;-79
2023/06/23 07:51:06;;;;;;;0.00;0.00;;;20.00;99.90;;;;;;5126385;27;20187;-81
2023/06/23 07:53:32;;;;;;;0.00;0.00;;;20.00;99.90;;;;;;5121991;27;20210;-81
2023/06/23 07:55:57;;;;;;;0.00;0.00;;;20.00;99.90;;;;;;5116958;27;20184;-80
2023/06/23 07:58:23;;;;;;;0.00;0.00;;;20.00;99.90;;;;;;5118675;27;21028;-80
2023/06/23 08:00:48;;;;;;;0.00;0.00;;;19.90;99.90;;;;;;5115770;28;20192;-80
2023/06/23 08:03:14;;;;;;;0.00;0.00;;;19.90;99.90;;;;;;5122548;27;20183;-81
2023/06/23 08:05:39;;;;;;;0.00;0.00;;;19.90;99.90;;;;;;5123003;27;20214;-80
2023/06/23 08:08:05;;;;;;;0.00;0.00;;;20.00;99.90;;;;;;5142241;27;20183;-80
2023/06/23 08:10:31;;;;;;;0.00;0.00;;;20.00;99.90;;;;;;5122739;27;20201;-80
2023/06/23 08:12:56;;;;;;;0.00;0.00;;;20.10;99.90;;;;;;5095726;28;20281;-80
2023/06/23 08:15:22;;;;;;;0.00;0.00;;;20.10;99.90;;;;;;5114750;28;20533;-79
2023/06/23 08:17:48;;;;;;;0.00;0.00;;;20.20;99.90;;;;;;5123090;28;20228;-79
2023/06/23 08:20:14;;;;;;;0.00;0.00;;;20.30;99.90;;;;;;5115743;27;20442;-80
2023/06/23 08:22:40;;;;;;;0.00;0.00;;;20.30;99.90;;;;;;5115631;27;20437;-80
2023/06/23 08:25:06;;;;;;;0.00;0.00;;;20.40;99.90;;;;;;5126002;27;20187;-78
2023/06/23 08:27:32;;;;;;;0.00;0.00;;;20.50;99.90;;;;;;5129249;27;20440;-78
2023/06/23 08:29:58;;;;;;;0.00;0.00;;;20.50;99.90;;;;;;5120370;27;20436;-77
2023/06/23 08:32:23;;;;;;;0.00;0.00;;;20.50;99.90;;;;;;5138945;27;20191;-78
2023/06/23 08:34:49;;;;;;;0.00;0.00;;;20.50;99.90;;;;;;5108123;28;20223;-78
2023/06/23 08:37:14;;;;;;;0.00;0.00;;;20.70;99.90;;;;;;5125147;27;20322;-77
2023/06/23 08:39:40;;;;;;;0.00;0.00;;;20.70;99.90;;;;;;5126234;27;20185;-78
2023/06/23 08:42:07;;;;;;;0.00;0.00;;;20.80;99.90;;;;;;5127508;28;20184;-77
2023/06/23 08:44:35;;;;;;;0.10;0.00;;;20.80;99.90;;;;;;5106643;27;20188;-78
2023/06/23 08:47:04;;;;;;;0.00;0.00;;;21.00;99.90;;;;;;5131729;27;20440;-78
2023/06/23 08:49:32;;;;;;;0.00;0.00;;;21.10;99.90;;;;;;5109763;28;20513;-78
2023/06/23 08:51:58;;;;;;;0.00;0.00;;;21.20;99.90;;;;;;5104786;27;20463;-78
2023/06/23 08:54:23;;;;;;;0.00;0.00;;;21.30;99.90;;;;;;5107702;27;20473;-78
2023/06/23 08:56:50;;;;;;;0.10;0.00;;;21.50;99.90;;;;;;5107134;28;20199;-78
2023/06/23 08:59:15;;;;;;;0.00;0.00;;;21.60;99.90;;;;;;5107070;27;20708;-78
2023/06/23 09:01:41;;;;;;;0.00;0.00;;;21.70;99.90;;;;;;5093679;27;20557;-78
2023/06/23 09:04:07;;;;;;;0.00;0.00;;;21.80;99.90;;;;;;5112380;27;22051;-78
2023/06/23 09:06:33;;;;;;;0.00;0.00;;;22.00;99.90;;;;;;5102758;27;20950;-78
2023/06/23 09:08:58;;;;;;;0.00;0.00;;;22.20;99.90;;;;;;5101041;27;20643;-78
2023/06/23 09:11:25;;;;;;;0.00;0.00;;;22.40;99.90;;;;;;5099199;27;20185;-78
2023/06/23 09:13:52;;;;;;;0.00;0.00;;;22.50;99.90;;;;;;5106295;28;20623;-78
2023/06/23 09:16:18;;;;;;;0.00;0.00;;;22.60;99.90;;;;;;5095143;27;20516;-78
2023/06/23 09:18:47;;;;;;;0.00;0.00;;;22.60;99.90;;;;;;5102464;27;21027;-78
2023/06/23 09:21:13;;;;;;;0.00;0.00;;;22.80;99.90;;;;;;5115561;27;20184;-78
2023/06/23 09:23:38;;;;;;;0.00;0.00;;;22.80;99.90;;;;;;5104784;27;20443;-78
2023/06/23 09:26:06;;;;;;;0.00;0.00;;;22.60;99.90;;;;;;5094327;28;20441;-78
2023/06/23 09:28:38;;;;;;;0.00;0.00;;;22.70;99.90;;;;;;5091112;28;20731;-79
2023/06/23 09:31:13;;;;;;;0.00;0.00;;;22.80;99.90;;;;;;5099615;28;20442;-78
2023/06/23 09:33:50;;;;;;;0.00;0.00;;;22.80;99.90;;;;;;5099713;27;20468;-78
2023/06/23 09:36:16;;;;;;;0.00;0.00;;;22.80;99.90;;;;;;5108141;27;20450;-78
2023/06/23 09:38:42;;;;;;;0.00;0.00;;;22.90;99.90;;;;;;5087328;28;20585;-78
2023/06/23 09:41:15;;;;;;;0.00;0.00;;;22.90;99.90;;;;;;5092429;28;20533;-78
2023/06/23 09:43:47;;;;;;;0.00;0.00;;;22.90;99.90;;;;;;5100094;28;21022;-78
2023/06/23 09:46:18;;;;;;;0.00;0.00;;;22.80;99.90;;;;;;5114158;27;20474;-79
2023/06/23 09:48:45;;;;;;;0.00;0.00;;;22.50;99.90;;;;;;5101858;27;20441;-78
2023/06/23 09:51:11;;;;;;;0.00;0.00;;;22.60;99.90;;;;;;5084769;28;20787;-78
2023/06/23 09:53:40;;;;;;;0.00;0.00;;;22.90;99.90;;;;;;5106998;28;20442;-78
2023/06/23 09:56:12;;;;;;;0.00;0.00;;;23.10;99.90;;;;;;5103198;28;20437;-79
2023/06/23 09:58:39;;;;;;;0.00;0.00;;;23.20;99.90;;;;;;5107354;28;20500;-78
2023/06/23 10:01:10;;;;;;;0.00;0.00;;;23.40;99.90;;;;;;5081451;27;20440;-78
2023/06/23 10:03:49;;;;;;;0.00;0.00;;;23.70;99.90;;;;;;5107504;27;22173;-79
2023/06/23 10:06:26;;;;;;;0.00;0.00;;;23.60;99.90;;;;;;5109941;27;20436;-77
2023/06/23 10:08:53;;;;;;;0.00;0.00;;;23.90;99.90;;;;;;5089676;28;20506;-78
2023/06/23 10:11:19;;;;;;;0.00;0.00;;;23.80;99.90;;;;;;5105861;28;20442;-78
2023/06/23 10:13:47;;;;;;;0.00;0.00;;;23.80;99.90;;;;;;5093462;27;20943;-78
2023/06/23 10:16:13;;;;;;;0.00;0.00;;;24.10;99.90;;;;;;5102162;27;20176;-79
2023/06/23 10:18:40;;;;;;;0.00;0.00;;;23.70;99.90;;;;;;5100661;28;21057;-78
2023/06/23 10:21:06;;;;;;;0.00;0.00;;;23.70;99.90;;;;;;5100000;28;20434;-77
2023/06/23 10:23:33;;;;;;;0.00;0.00;;;23.50;99.90;;;;;;5087924;28;20449;-77
2023/06/23 10:26:00;;;;;;;0.00;0.00;;;23.10;99.90;;;;;;5105405;28;20483;-78
2023/06/23 10:28:28;;;;;;;0.00;0.00;;;23.00;99.90;;;;;;5110841;27;20446;-78
2023/06/23 10:30:54;;;;;;;0.00;0.00;;;22.90;99.90;;;;;;5107079;28;20437;-77
2023/06/23 10:33:21;;;;;;;0.00;0.00;;;23.20;99.90;;;;;;5113978;27;20478;-78
2023/06/23 10:35:48;;;;;;;0.00;0.00;;;23.10;99.90;;;;;;5112688;27;20436;-77
2023/06/23 10:38:20;;;;;;;0.00;0.00;;;22.90;99.90;;;;;;5125694;27;20489;-78
2023/06/23 10:40:49;;;;;;;0.00;0.00;;;23.00;99.90;;;;;;5108806;27;20445;-77
2023/06/23 10:43:17;;;;;;;0.00;0.00;;;23.10;99.90;;;;;;5090356;28;20434;-77
2023/06/23 10:45:44;;;;;;;0.00;0.00;;;23.20;99.90;;;;;;5094349;28;20441;-77
2023/06/23 10:48:09;;;;;;;0.00;0.00;;;23.20;99.90;;;;;;5102897;28;20478;-77
2023/06/23 10:50:38;;;;;;;0.00;0.00;;;22.90;99.90;;;;;;5097782;27;20530;-77
2023/06/23 10:53:13;;;;;;;0.00;0.00;;;23.00;99.90;;;;;;5085884;28;20216;-77
2023/06/23 10:55:42;;;;;;;0.00;0.00;;;23.10;99.90;;;;;;5107778;27;20438;-78
2023/06/23 10:58:18;;;;;;;0.00;0.00;;;23.10;99.90;;;;;;5112791;27;20483;-77
2023/06/23 11:00:53;;;;;;;0.00;0.00;;;23.20;99.90;;;;;;5090447;28;20437;-77
2023/06/23 11:03:27;;;;;;;0.03;0.00;;;23.10;99.90;;;;;;5116631;27;20441;-77
2023/06/23 11:05:57;;;;;;;0.10;0.00;;;22.90;99.90;;;;;;5101938;28;20434;-77
2023/06/23 11:08:28;;;;;;;0.10;0.00;;;23.20;99.90;;;;;;5106899;28;20442;-77
2023/06/23 11:11:00;;;;;;;0.00;0.00;;;23.10;99.90;;;;;;5097897;28;20438;-78
2023/06/23 11:13:53;;;;;;;0.00;0.00;;;23.10;99.90;;;;;;5087809;28;20472;-77
2023/06/23 11:16:34;;;;;;;0.00;0.00;;;23.20;99.90;;;;;;5106146;28;20465;-77
2023/06/23 11:19:02;;;;;;;0.10;0.00;;;23.50;99.90;;;;;;5110898;27;20880;-77
2023/06/23 11:21:28;;;;;;;0.00;0.00;;;23.50;99.90;;;;;;5108261;28;20925;-77
2023/06/23 11:24:10;;;;;;;0.00;0.00;;;23.70;99.90;;;;;;5089632;28;20598;-77
2023/06/23 11:26:36;;;;;;;0.10;0.00;;;24.50;99.90;;;;;;5099247;28;20414;-78
2023/06/23 11:29:09;;;;;;;0.10;0.00;;;24.80;99.90;;;;;;5085650;28;20477;-78
2023/06/23 12:11:21;;;;;;;0.00;0.00;;;26.30;98.90;;;;;;5120828;27;20596;-82
2023/06/23 12:13:48;;;;;;;0.00;0.00;;;26.20;99.90;;;;;;5113346;27;20446;-81
2023/06/23 12:16:14;;;;;;;0.00;0.00;;;26.20;99.70;;;;;;5113425;28;20899;-83
2023/06/23 12:18:48;;;;;;;0.00;0.00;;;26.40;99.90;;;;;;5106193;28;20445;-81
2023/06/23 12:21:14;;;;;;;0.00;0.00;;;26.40;98.40;;;;;;5106692;28;20489;-85
2023/06/23 12:23:41;;;;;;;0.00;0.00;;;26.50;99.60;;;;;;5078859;28;20452;-82
2023/06/23 12:26:08;;;;;;;0.00;0.00;;;26.30;98.90;;;;;;5100154;28;21168;-82
2023/06/23 12:28:34;;;;;;;0.00;0.00;;;26.30;99.90;;;;;;5099305;28;20877;-82
2023/06/23 12:30:59;;;;;;;0.00;0.00;;;26.20;99.90;;;;;;5087638;28;20512;-84
2023/06/23 12:33:27;;;;;;;0.00;0.00;;;26.20;99.90;;;;;;5090216;28;20276;-81
2023/06/23 12:35:57;;;;;;;0.00;0.00;;;25.40;99.50;;;;;;5104732;28;20181;-82
2023/06/23 12:38:23;;;;;;;0.00;0.00;;;25.30;99.90;;;;;;5078050;28;20437;-81
2023/06/23 12:40:50;;;;;;;0.00;0.00;;;25.60;99.90;;;;;;5080049;28;20452;-83
2023/06/23 12:43:18;;;;;;;0.00;0.00;;;25.60;99.90;;;;;;5070666;28;20470;-81
2023/06/23 12:45:43;;;;;;;0.00;0.00;;;25.70;99.90;;;;;;5083590;28;20450;-79
2023/06/23 12:48:12;;;;;;;0.00;0.00;;;25.20;99.90;;;;;;5089251;28;20434;-79
2023/06/23 12:50:41;;;;;;;0.00;0.00;;;24.80;99.90;;;;;;5090952;28;20209;-81
2023/06/23 12:53:07;;;;;;;0.00;0.00;;;24.70;99.90;;;;;;5088905;28;20495;-79
2023/06/23 12:55:33;;;;;;;0.00;0.00;;;24.70;99.90;;;;;;5109708;28;21023;-82
2023/06/23 12:57:59;;;;;;;0.00;0.00;;;24.70;99.90;;;;;;5105515;28;20572;-81
2023/06/23 13:00:26;;;;;;;0.00;0.00;;;24.80;99.90;;;;;;5095110;28;20263;-82
2023/06/23 13:02:53;;;;;;;0.00;0.00;;;25.00;99.90;;;;;;5095973;28;20962;-82
2023/06/23 13:05:19;;;;;;;0.00;0.00;;;25.10;99.90;;;;;;5104910;27;20462;-82
2023/06/23 13:07:45;;;;;;;0.00;0.00;;;25.00;99.90;;;;;;5110095;28;20444;-82
2023/06/23 13:10:11;;;;;;;0.00;0.00;;;24.80;99.90;;;;;;5086122;28;21017;-81
2023/06/23 13:12:36;;;;;;;0.00;0.00;;;24.80;99.90;;;;;;5094957;28;20185;-82
2023/06/23 13:15:03;;;;;;;0.00;0.00;;;25.00;99.90;;;;;;5070775;28;20255;-82
2023/06/23 13:17:32;;;;;;;0.00;0.00;;;25.00;99.90;;;;;;5096219;28;20655;-82
2023/06/23 13:19:58;;;;;;;0.00;0.00;;;24.90;99.90;;;;;;5062939;28;20528;-82
2023/06/23 13:22:24;;;;;;;0.00;0.00;;;24.80;99.90;;;;;;5090339;27;20439;-79
2023/06/23 13:24:49;;;;;;;0.00;0.00;;;24.90;99.90;;;;;;5088917;28;20492;-79
2023/06/23 13:27:15;;;;;;;0.00;0.00;;;25.10;99.90;;;;;;5089330;28;20277;-79
2023/06/23 13:29:41;;;;;;;0.00;0.00;;;25.20;99.90;;;;;;5070145;28;20664;-80
2023/06/23 13:32:08;;;;;;;0.00;0.00;;;25.60;99.90;;;;;;5067065;28;20197;-79
2023/06/23 13:34:35;;;;;;;0.00;0.00;;;25.80;99.90;;;;;;5067892;28;20444;-79
2023/06/23 13:37:02;;;;;;;0.00;0.00;;;26.00;99.90;;;;;;5054532;28;20463;-80
2023/06/23 13:39:28;;;;;;;0.00;0.00;;;26.20;99.90;;;;;;5072317;28;20744;-80
2023/06/23 13:41:53;;;;;;;0.00;0.00;;;26.30;99.90;;;;;;5080977;28;20489;-79
2023/06/23 13:44:19;;;;;;;0.00;0.00;;;25.70;99.90;;;;;;5089549;28;20193;-79
2023/06/23 13:46:45;;;;;;;0.00;0.00;;;25.20;99.90;;;;;;5091454;28;20276;-78
2023/06/23 13:49:12;;;;;;;0.00;0.00;;;25.20;99.90;;;;;;5102144;28;20242;-78
2023/06/23 13:51:41;;;;;;;0.00;0.00;;;25.30;99.90;;;;;;5100767;28;20193;-79
2023/06/23 13:54:07;;;;;;;0.00;0.00;;;25.30;99.90;;;;;;5072769;28;20444;-79
2023/06/23 13:56:33;;;;;;;0.00;0.00;;;25.60;99.90;;;;;;5113072;28;20525;-79
2023/06/23 13:58:59;;;;;;;0.00;0.00;;;26.00;99.90;;;;;;5110691;28;20172;-79
2023/06/23 14:01:25;;;;;;;0.00;0.00;;;26.30;99.90;;;;;;5087244;28;20426;-79
2023/06/23 14:03:51;;;;;;;0.00;0.00;;;26.50;99.90;;;;;;5058936;28;20448;-79
2023/06/23 14:06:18;;;;;;;0.00;0.00;;;26.60;99.90;;;;;;5090109;28;20185;-80
2023/06/23 14:08:44;;;;;;;0.00;0.00;;;26.50;99.80;;;;;;5085853;28;20489;-79
2023/06/23 14:11:10;;;;;;;0.00;0.00;;;26.60;99.10;;;;;;5086476;28;20552;-80
2023/06/23 14:13:35;;;;;;;0.00;0.00;;;26.20;99.20;;;;;;5085870;28;20443;-79
2023/06/23 14:16:01;;;;;;;0.00;0.00;;;26.30;99.90;;;;;;5091814;28;20212;-79
2023/06/23 14:18:26;;;;;;;0.00;0.00;;;26.30;99.10;;;;;;5089798;28;20192;-80
2023/06/23 14:20:52;;;;;;;0.00;0.00;;;26.40;97.30;;;;;;5076475;28;20216;-81
2023/06/23 14:23:18;;;;;;;0.00;0.00;;;26.60;98.50;;;;;;5108447;28;20188;-80
2023/06/23 14:25:43;;;;;;;0.00;0.00;;;27.00;99.90;;;;;;5081563;28;20189;-79